Time;durP1;ratioP1;P1;durP2;ratioP2;P2;SDS_P1;SDS_P2;PMS_P1;PMS_P2;Temp;Humidity;BMP_temperature;BMP_pressure;BME280_temperature;BME280_humidity;BME280_pressure;Samples;Min_cycle;Max_cycle;Signal;HPM_P1;HPM_P2
2024/01/21 00:00:47;;;;;;;15.50;9.82;;;;;;;-1.60;81.73;99233.09;4260410;27;20230;-82
2024/01/21 00:02:51;;;;;;;17.08;10.20;;;;;;;-1.57;82.03;99225.44;4257035;27;20208;-83
2024/01/21 00:04:54;;;;;;;16.05;9.82;;;;;;;-1.60;81.64;99231.38;4256934;27;20217;-83
2024/01/21 00:06:58;;;;;;;18.30;8.52;;;;;;;-1.65;80.51;99227.16;4242293;27;20207;-83
2024/01/21 00:09:01;;;;;;;16.63;9.23;;;;;;;-1.69;81.07;99218.63;4255012;27;20227;-83
2024/01/21 00:11:05;;;;;;;13.02;8.30;;;;;;;-1.71;81.80;99215.25;4243000;27;20199;-83
2024/01/21 00:13:07;;;;;;;14.55;8.95;;;;;;;-1.71;81.99;99205.00;4223649;27;20273;-83
2024/01/21 00:15:10;;;;;;;18.13;9.82;;;;;;;-1.68;81.68;99214.38;4223987;27;20208;-83
2024/01/21 00:17:14;;;;;;;21.35;11.32;;;;;;;-1.67;81.52;99216.06;4257272;27;20237;-83
2024/01/21 00:19:17;;;;;;;27.30;13.65;;;;;;;-1.69;81.87;99216.06;4257917;27;20286;-83
2024/01/21 00:21:20;;;;;;;17.23;9.77;;;;;;;-1.71;82.11;99210.13;4211906;27;20231;-83
2024/01/21 00:23:25;;;;;;;19.63;11.35;;;;;;;-1.71;82.04;99206.72;4240072;27;20244;-83
2024/01/21 00:25:28;;;;;;;16.85;9.70;;;;;;;-1.70;81.92;99210.97;4225985;27;20204;-83
2024/01/21 00:27:31;;;;;;;16.58;9.70;;;;;;;-1.72;81.17;99210.13;4244800;27;20199;-83
2024/01/21 00:29:36;;;;;;;18.00;9.80;;;;;;;-1.76;81.51;99211.84;4239821;27;20218;-83
2024/01/21 00:31:39;;;;;;;14.75;9.25;;;;;;;-1.78;81.02;99217.81;4222977;27;20244;-82
2024/01/21 00:33:43;;;;;;;16.17;8.55;;;;;;;-1.78;81.07;99220.38;4243606;27;20223;-82
2024/01/21 00:35:46;;;;;;;16.20;8.95;;;;;;;-1.78;81.30;99213.53;4254072;27;20677;-82
2024/01/21 00:37:49;;;;;;;15.55;8.80;;;;;;;-1.79;81.36;99218.66;4261485;27;20216;-83
2024/01/21 00:39:54;;;;;;;16.50;9.88;;;;;;;-1.82;80.61;99211.88;4258745;27;20262;-83
2024/01/21 00:41:57;;;;;;;13.32;8.27;;;;;;;-1.87;80.44;99203.34;4260282;27;20225;-82
2024/01/21 00:44:10;;;;;;;11.48;8.07;;;;;;;-1.90;80.79;99196.56;4263027;27;21004;-83
2024/01/21 00:46:13;;;;;;;13.10;8.15;;;;;;;-1.94;81.08;99190.56;4235052;27;20200;-83
2024/01/21 00:48:16;;;;;;;15.70;7.88;;;;;;;-1.92;81.17;99199.13;4244322;27;20199;-83
2024/01/21 00:50:20;;;;;;;16.65;9.38;;;;;;;-1.92;81.59;99198.25;4230393;27;20237;-82
2024/01/21 00:52:26;;;;;;;12.75;8.20;;;;;;;-1.93;81.43;99192.28;4260461;27;20198;-82
2024/01/21 00:54:29;;;;;;;14.18;8.13;;;;;;;-1.92;81.13;99195.69;4226743;27;20637;-83
2024/01/21 00:56:34;;;;;;;13.52;7.95;;;;;;;-1.91;81.00;99190.56;4252154;27;20681;-83
2024/01/21 00:58:37;;;;;;;13.75;7.35;;;;;;;-1.94;81.25;99195.69;4250759;27;20673;-83
2024/01/21 01:00:40;;;;;;;11.40;7.55;;;;;;;-1.89;80.90;99199.09;4235723;27;20223;-82
2024/01/21 01:02:44;;;;;;;19.15;10.90;;;;;;;-1.92;81.52;99195.69;4241496;27;20631;-82
2024/01/21 01:04:48;;;;;;;35.95;11.50;;;;;;;-1.90;81.75;99194.84;4232301;27;20215;-83
2024/01/21 01:06:52;;;;;;;13.80;8.65;;;;;;;-1.89;81.81;99204.22;4254052;27;20196;-83
2024/01/21 01:08:55;;;;;;;17.75;9.25;;;;;;;-1.90;81.32;99202.50;4238030;27;20199;-83
2024/01/21 01:10:58;;;;;;;19.85;10.18;;;;;;;-1.91;81.75;99205.91;4222704;27;20303;-83
2024/01/21 01:13:02;;;;;;;18.75;8.85;;;;;;;-1.92;81.88;99209.34;4242157;27;20215;-83
2024/01/21 01:15:05;;;;;;;16.15;8.10;;;;;;;-1.95;81.93;99204.22;4240437;27;20310;-83
2024/01/21 01:17:08;;;;;;;13.40;7.88;;;;;;;-1.97;81.47;99210.19;4256159;27;20226;-82
2024/01/21 01:19:11;;;;;;;12.35;7.93;;;;;;;-1.99;81.52;99211.91;4235657;27;20202;-83
2024/01/21 01:21:14;;;;;;;13.35;8.27;;;;;;;-2.03;81.43;99205.94;4237097;27;20321;-82
2024/01/21 01:23:18;;;;;;;11.75;7.63;;;;;;;-2.05;80.85;99199.97;4238305;27;20874;-82
2024/01/21 01:25:21;;;;;;;13.52;8.35;;;;;;;-2.12;80.32;99198.31;4258282;27;20187;-83
2024/01/21 01:27:26;;;;;;;9.35;6.93;;;;;;;-2.16;80.57;99195.75;4238955;27;20258;-83
2024/01/21 01:29:31;;;;;;;11.93;7.43;;;;;;;-2.17;80.82;99194.88;4255193;27;20294;-83
2024/01/21 01:31:34;;;;;;;15.60;8.38;;;;;;;-2.23;80.76;99196.59;4221862;27;20192;-83
2024/01/21 01:33:37;;;;;;;12.00;7.65;;;;;;;-2.25;81.23;99199.16;4217921;27;20226;-83
2024/01/21 01:35:40;;;;;;;11.85;7.70;;;;;;;-2.23;81.41;99191.50;4234126;27;20207;-83
2024/01/21 01:37:43;;;;;;;18.50;10.40;;;;;;;-2.21;81.74;99200.00;4254456;27;21464;-83
2024/01/21 01:39:47;;;;;;;15.23;8.85;;;;;;;-2.20;81.45;99192.31;4232320;27;20357;-83
2024/01/21 01:41:53;;;;;;;12.38;7.75;;;;;;;-2.24;81.48;99200.88;4238821;27;20210;-82
2024/01/21 01:43:56;;;;;;;13.52;7.80;;;;;;;-2.27;80.69;99200.88;4234722;27;20316;-82
2024/01/21 01:46:01;;;;;;;13.20;7.40;;;;;;;-2.34;80.18;99199.16;4256941;27;20207;-83
2024/01/21 01:48:05;;;;;;;12.88;7.47;;;;;;;-2.31;80.91;99199.16;4231945;27;20234;-82
2024/01/21 01:50:09;;;;;;;13.02;7.53;;;;;;;-2.32;81.45;99194.88;4219400;27;20775;-82
2024/01/21 01:52:14;;;;;;;13.02;8.05;;;;;;;-2.31;81.51;99194.03;4250096;27;20208;-83
2024/01/21 01:54:17;;;;;;;18.20;9.43;;;;;;;-2.30;81.85;99189.78;4252520;27;20310;-83
2024/01/21 01:56:20;;;;;;;31.20;11.13;;;;;;;-2.33;81.54;99195.75;4253787;27;20214;-83
2024/01/21 01:58:28;;;;;;;20.48;10.60;;;;;;;-2.34;81.69;99197.47;4233559;27;20200;-83
2024/01/21 02:00:31;;;;;;;16.65;10.02;;;;;;;-2.40;82.16;99187.25;4218065;28;20737;-83
2024/01/21 02:02:36;;;;;;;13.02;8.00;;;;;;;-2.43;81.57;99194.91;4219258;27;20952;-82
2024/01/21 02:04:40;;;;;;;13.88;7.63;;;;;;;-2.45;81.80;99188.94;4253526;27;20267;-83
2024/01/21 02:06:44;;;;;;;11.20;8.05;;;;;;;-2.47;81.90;99180.44;4258088;27;20509;-83
2024/01/21 02:08:47;;;;;;;15.07;8.55;;;;;;;-2.50;82.01;99180.44;4253062;27;20208;-83
2024/01/21 02:10:51;;;;;;;11.70;7.82;;;;;;;-2.49;81.87;99182.16;4216017;27;20286;-82
2024/01/21 02:12:55;;;;;;;11.85;7.43;;;;;;;-2.51;81.43;99171.06;4253461;27;20199;-83
2024/01/21 02:14:59;;;;;;;18.48;8.35;;;;;;;-2.55;81.56;99161.75;4252638;27;20211;-83
2024/01/21 02:17:04;;;;;;;14.30;7.03;;;;;;;-2.62;80.52;99168.53;4233323;27;20617;-83
2024/01/21 02:19:12;;;;;;;11.50;7.22;;;;;;;-2.64;80.94;99154.09;4215540;27;20303;-82
2024/01/21 02:21:16;;;;;;;11.70;7.13;;;;;;;-2.70;80.68;99154.09;4250714;27;20755;-83
2024/01/21 02:23:21;;;;;;;14.73;8.45;;;;;;;-2.72;81.28;99148.97;4217060;27;20201;-83
2024/01/21 02:25:23;;;;;;;13.07;7.05;;;;;;;-2.70;80.97;99138.78;4236120;27;20199;-82
2024/01/21 02:27:30;;;;;;;17.17;7.40;;;;;;;-2.72;81.77;99137.91;4239535;27;20667;-82
2024/01/21 02:29:32;;;;;;;13.80;7.20;;;;;;;-2.77;81.63;99140.47;4235367;27;20227;-82
2024/01/21 02:31:36;;;;;;;12.27;6.90;;;;;;;-2.76;81.45;99137.06;4253036;27;20222;-82
2024/01/21 02:33:40;;;;;;;13.77;7.38;;;;;;;-2.78;81.25;99137.94;4237698;27;20208;-83
2024/01/21 02:35:42;;;;;;;11.75;7.15;;;;;;;-2.79;80.94;99139.59;4241717;27;20724;-82
2024/01/21 02:37:46;;;;;;;10.55;7.00;;;;;;;-2.82;80.62;99125.16;4235066;27;20202;-82
2024/01/21 02:39:51;;;;;;;9.50;6.75;;;;;;;-2.84;80.20;99127.72;4216977;27;20207;-82
2024/01/21 02:41:53;;;;;;;11.68;7.40;;;;;;;-2.86;80.41;99124.28;4254571;27;20324;-83
2024/01/21 02:43:57;;;;;;;13.60;7.05;;;;;;;-2.85;80.31;99131.13;4220363;27;20207;-83
2024/01/21 02:46:00;;;;;;;11.20;7.03;;;;;;;-2.87;81.13;99120.06;4251538;27;20749;-83
2024/01/21 02:48:03;;;;;;;12.70;7.45;;;;;;;-2.86;80.36;99118.34;4252184;27;20186;-82
2024/01/21 02:50:07;;;;;;;10.18;6.95;;;;;;;-2.87;79.93;99117.53;4227939;27;20228;-83
2024/01/21 02:52:11;;;;;;;11.65;7.18;;;;;;;-2.87;79.92;99124.28;4224697;27;20223;-83
2024/01/21 02:54:14;;;;;;;11.27;6.85;;;;;;;-2.89;79.89;99131.94;4260215;27;20297;-82
2024/01/21 02:56:21;;;;;;;16.55;7.53;;;;;;;-2.92;79.80;99133.66;4222490;27;20322;-83
2024/01/21 02:58:25;;;;;;;13.55;7.05;;;;;;;-2.93;79.91;99131.94;4223640;27;20196;-83
2024/01/21 03:00:28;;;;;;;9.43;5.93;;;;;;;-2.94;80.46;99130.25;4237628;27;20199;-83
2024/01/21 03:02:31;;;;;;;12.73;6.03;;;;;;;-2.98;79.82;99131.94;4251923;27;20668;-82
2024/01/21 03:04:34;;;;;;;9.65;6.93;;;;;;;-2.96;80.35;99120.06;4218444;27;20216;-82
2024/01/21 03:06:38;;;;;;;11.57;6.65;;;;;;;-2.99;80.59;99122.59;4249611;27;20234;-82
2024/01/21 03:08:41;;;;;;;10.07;6.18;;;;;;;-2.99;80.57;99127.72;4231775;27;20196;-83
2024/01/21 03:10:44;;;;;;;11.02;5.70;;;;;;;-2.97;80.83;99126.00;4230482;27;20210;-83
2024/01/21 03:12:50;;;;;;;14.82;7.68;;;;;;;-2.95;80.42;99133.66;4219081;28;20299;-82
2024/01/21 03:14:54;;;;;;;9.55;6.70;;;;;;;-2.93;80.45;99134.50;4238504;27;20200;-83
2024/01/21 03:16:58;;;;;;;9.50;7.15;;;;;;;-2.98;80.00;99131.94;4233214;27;20722;-82
2024/01/21 03:19:01;;;;;;;11.82;5.90;;;;;;;-2.98;80.38;99133.66;4239735;27;20215;-83
2024/01/21 03:21:05;;;;;;;12.90;6.80;;;;;;;-3.02;80.40;99120.06;4231214;27;20271;-83
2024/01/21 03:23:08;;;;;;;14.05;7.20;;;;;;;-3.00;80.12;99135.34;4210435;28;20212;-81
2024/01/21 03:25:11;;;;;;;11.90;6.82;;;;;;;-2.99;80.83;99119.19;4232489;27;20199;-81
2024/01/21 03:27:14;;;;;;;8.82;5.25;;;;;;;-3.01;80.18;99124.28;4257314;27;20705;-81
2024/01/21 03:29:19;;;;;;;10.73;6.80;;;;;;;-3.03;81.12;99122.59;4231779;27;20211;-81
2024/01/21 03:31:23;;;;;;;9.02;6.13;;;;;;;-3.07;80.74;99131.94;4235889;27;20211;-81
2024/01/21 03:33:27;;;;;;;11.88;6.88;;;;;;;-3.04;81.43;99128.53;4236595;27;20196;-81
2024/01/21 03:35:31;;;;;;;14.60;7.60;;;;;;;-3.07;80.62;99124.28;4251065;27;20230;-81
2024/01/21 03:37:34;;;;;;;9.27;5.90;;;;;;;-3.05;80.97;99126.81;4223685;28;20682;-81
2024/01/21 03:39:38;;;;;;;12.65;6.50;;;;;;;-3.09;80.38;99122.59;4253129;27;20208;-81
2024/01/21 03:41:41;;;;;;;9.70;5.93;;;;;;;-3.10;80.60;99114.06;4251561;27;20231;-81
2024/01/21 03:43:45;;;;;;;8.07;5.22;;;;;;;-3.11;79.69;99127.69;4237982;27;20545;-81
2024/01/21 03:45:53;;;;;;;13.05;6.55;;;;;;;-3.11;79.87;99114.06;4222008;28;20235;-81
2024/01/21 03:47:57;;;;;;;10.30;5.60;;;;;;;-3.13;79.90;99111.56;4218053;28;20202;-81
2024/01/21 03:50:01;;;;;;;8.45;5.35;;;;;;;-3.14;80.08;99107.28;4225553;27;20255;-80
2024/01/21 03:52:05;;;;;;;9.30;5.70;;;;;;;-3.16;80.23;99101.34;4250440;27;20202;-81
2024/01/21 03:54:08;;;;;;;13.40;7.32;;;;;;;-3.14;80.40;99107.28;4250918;27;20195;-81
2024/01/21 03:56:17;;;;;;;9.90;6.05;;;;;;;-3.11;80.91;99111.53;4234372;27;20244;-81
2024/01/21 03:58:20;;;;;;;10.75;6.20;;;;;;;-3.10;81.06;99114.06;4236630;27;20199;-81
2024/01/21 04:00:24;;;;;;;10.75;5.68;;;;;;;-3.08;80.81;99117.50;4239773;27;20211;-81
2024/01/21 04:02:30;;;;;;;8.48;5.88;;;;;;;-3.10;80.93;99101.31;4252253;27;20207;-81
2024/01/21 04:04:36;;;;;;;8.52;5.75;;;;;;;-3.09;80.48;99100.47;4235978;27;20231;-81
2024/01/21 04:06:39;;;;;;;10.98;6.38;;;;;;;-3.16;80.05;99097.94;4224892;28;20290;-81
2024/01/21 04:08:43;;;;;;;12.90;7.63;;;;;;;-3.23;79.33;99093.69;4222982;28;20204;-82
2024/01/21 04:10:47;;;;;;;10.93;7.35;;;;;;;-3.20;79.79;99096.25;4252285;27;20256;-81
2024/01/21 04:12:50;;;;;;;10.50;5.72;;;;;;;-3.21;79.71;99097.09;4251457;27;20241;-81
2024/01/21 04:14:53;;;;;;;12.98;6.80;;;;;;;-3.31;79.97;99086.88;4235601;27;20685;-80
2024/01/21 04:16:56;;;;;;;9.70;6.80;;;;;;;-3.35;80.04;99088.56;4257498;27;20902;-81
2024/01/21 04:19:00;;;;;;;15.60;8.25;;;;;;;-3.41;79.58;99077.50;4236304;27;20629;-81
2024/01/21 04:21:04;;;;;;;11.07;6.93;;;;;;;-3.52;79.12;99084.28;4220595;28;20741;-80
2024/01/21 04:23:07;;;;;;;14.32;7.70;;;;;;;-3.55;79.33;99074.06;4234742;27;20221;-81
2024/01/21 04:25:10;;;;;;;10.02;5.70;;;;;;;-3.49;79.22;99071.53;4236318;27;20846;-81
2024/01/21 04:27:14;;;;;;;9.90;5.95;;;;;;;-3.51;80.36;99074.09;4253119;27;20208;-81
2024/01/21 04:29:17;;;;;;;9.05;5.53;;;;;;;-3.46;80.12;99064.75;4235476;27;20199;-81
2024/01/21 04:31:20;;;;;;;12.18;5.90;;;;;;;-3.40;80.39;99077.50;4246513;27;20210;-81
2024/01/21 04:33:23;;;;;;;10.55;5.72;;;;;;;-3.36;81.10;99070.72;4232175;27;20570;-81
2024/01/21 04:35:28;;;;;;;10.52;6.53;;;;;;;-3.33;80.79;99074.13;4235009;27;20656;-81
2024/01/21 04:37:32;;;;;;;13.00;7.43;;;;;;;-3.31;80.79;99077.50;4254707;27;20209;-80
2024/01/21 04:39:38;;;;;;;12.43;6.80;;;;;;;-3.32;81.07;99080.06;4239026;27;20208;-81
2024/01/21 04:41:42;;;;;;;11.65;6.45;;;;;;;-3.36;80.86;99068.19;4240994;27;20219;-80
2024/01/21 04:43:45;;;;;;;10.68;6.03;;;;;;;-3.34;81.31;99071.56;4235802;27;20231;-81
2024/01/21 04:45:49;;;;;;;9.77;6.45;;;;;;;-3.31;81.31;99077.50;4239280;27;20191;-81
2024/01/21 04:47:51;;;;;;;8.90;6.20;;;;;;;-3.32;81.64;99075.84;4219927;27;20292;-80
2024/01/21 04:49:54;;;;;;;10.55;6.63;;;;;;;-3.28;80.57;99081.78;4255772;27;20272;-81
2024/01/21 04:51:59;;;;;;;9.85;5.80;;;;;;;-3.25;80.99;99077.53;4253729;27;20206;-80
2024/01/21 04:54:02;;;;;;;11.25;5.82;;;;;;;-3.23;81.20;99075.84;4253713;27;20242;-81
2024/01/21 04:56:06;;;;;;;11.73;7.10;;;;;;;-3.26;80.53;99083.50;4231950;27;21040;-81
2024/01/21 04:58:09;;;;;;;10.05;5.85;;;;;;;-3.28;80.50;99080.94;4239435;27;20298;-80
2024/01/21 05:00:14;;;;;;;11.68;6.50;;;;;;;-3.28;79.99;99076.69;4224232;27;20210;-81
2024/01/21 05:02:18;;;;;;;9.88;6.20;;;;;;;-3.33;79.10;99073.28;4237505;27;20196;-81
2024/01/21 05:04:21;;;;;;;10.70;5.93;;;;;;;-3.42;79.41;99063.06;4226309;27;20213;-81
2024/01/21 05:06:24;;;;;;;8.48;5.40;;;;;;;-3.45;79.47;99066.44;4225158;27;20637;-81
2024/01/21 05:08:32;;;;;;;12.75;6.55;;;;;;;-3.47;79.87;99059.66;4255247;27;20691;-80
2024/01/21 05:10:36;;;;;;;10.70;5.68;;;;;;;-3.46;79.97;99059.66;4236608;27;20203;-81
2024/01/21 05:12:39;;;;;;;10.80;6.43;;;;;;;-3.40;80.66;99057.09;4225564;27;20220;-81
2024/01/21 05:14:42;;;;;;;10.13;6.20;;;;;;;-3.35;80.78;99059.66;4260503;27;20617;-80
2024/01/21 05:16:45;;;;;;;10.43;5.80;;;;;;;-3.28;80.40;99057.13;4235288;27;20220;-81
2024/01/21 05:18:48;;;;;;;10.82;6.43;;;;;;;-3.30;80.90;99053.72;4228799;27;20216;-81
2024/01/21 05:20:51;;;;;;;11.75;6.30;;;;;;;-3.31;80.70;99062.22;4240294;27;20288;-81
2024/01/21 05:22:55;;;;;;;9.82;5.90;;;;;;;-3.28;81.11;99078.38;4251719;27;20195;-81
2024/01/21 05:25:00;;;;;;;10.48;5.72;;;;;;;-3.25;81.17;99085.16;4233902;27;20289;-81
2024/01/21 05:27:02;;;;;;;9.15;5.85;;;;;;;-3.20;81.09;99086.03;4223959;27;20197;-81
2024/01/21 05:29:06;;;;;;;8.48;5.55;;;;;;;-3.19;81.48;99092.81;4254004;27;20203;-81
2024/01/21 05:31:09;;;;;;;9.68;5.45;;;;;;;-3.14;81.12;99091.16;4255079;27;20297;-81
2024/01/21 05:33:12;;;;;;;9.40;6.13;;;;;;;-3.11;81.38;99107.28;4225358;27;20206;-82
2024/01/21 05:35:15;;;;;;;7.57;5.20;;;;;;;-3.13;81.15;99113.22;4241052;27;20203;-81
2024/01/21 05:37:19;;;;;;;9.95;6.15;;;;;;;-3.17;81.08;99120.03;4254009;27;20237;-81
2024/01/21 05:39:22;;;;;;;10.93;5.95;;;;;;;-3.23;81.67;99127.66;4237161;27;20204;-81
2024/01/21 05:41:28;;;;;;;8.10;5.38;;;;;;;-3.28;80.66;99126.81;4235621;27;20204;-81
2024/01/21 05:43:31;;;;;;;9.45;5.03;;;;;;;-3.29;80.70;99125.94;4232873;27;20280;-83
2024/01/21 05:45:35;;;;;;;10.57;5.80;;;;;;;-3.31;80.75;99141.22;4253964;27;20641;-83
2024/01/21 05:47:38;;;;;;;8.52;5.25;;;;;;;-3.32;80.69;99134.47;4253515;27;20716;-83
2024/01/21 05:49:41;;;;;;;7.88;5.30;;;;;;;-3.36;80.71;99129.34;4254290;27;20248;-83
2024/01/21 05:51:44;;;;;;;9.45;5.68;;;;;;;-3.38;81.06;99129.34;4216725;27;20575;-82
2024/01/21 05:53:47;;;;;;;8.75;6.03;;;;;;;-3.30;81.79;99137.00;4216765;27;20204;-83
2024/01/21 05:55:49;;;;;;;8.60;4.85;;;;;;;-3.30;81.23;99126.81;4225268;27;20625;-83
2024/01/21 05:57:54;;;;;;;7.63;4.80;;;;;;;-3.30;80.81;99134.47;4214756;27;20791;-83
2024/01/21 05:59:58;;;;;;;8.23;5.35;;;;;;;-3.28;80.90;99134.47;4226790;27;20639;-83
2024/01/21 06:02:07;;;;;;;8.45;5.75;;;;;;;-3.28;81.43;99138.69;4241682;27;20223;-82
2024/01/21 06:04:10;;;;;;;10.65;5.82;;;;;;;-3.25;81.73;99121.72;4232676;27;20771;-83
2024/01/21 06:06:14;;;;;;;14.75;6.60;;;;;;;-3.25;81.31;99133.59;4251963;27;20242;-83
2024/01/21 06:08:17;;;;;;;10.00;6.00;;;;;;;-3.28;81.63;99124.28;4235661;27;20541;-83
2024/01/21 06:10:20;;;;;;;9.60;6.00;;;;;;;-3.21;81.60;99125.13;4232845;27;20199;-83
2024/01/21 06:12:23;;;;;;;10.00;6.30;;;;;;;-3.23;81.69;99127.66;4255651;27;20325;-83
2024/01/21 06:14:28;;;;;;;8.68;4.88;;;;;;;-3.20;81.66;99139.59;4254715;27;20251;-82
2024/01/21 06:16:31;;;;;;;12.65;6.70;;;;;;;-3.21;82.12;99148.06;4220011;27;20212;-83
2024/01/21 06:18:34;;;;;;;12.02;6.45;;;;;;;-3.23;82.14;99148.06;4234462;27;20294;-83
2024/01/21 06:20:38;;;;;;;20.60;10.10;;;;;;;-3.21;81.97;99151.47;4239847;27;20899;-83
2024/01/21 06:22:41;;;;;;;20.77;9.27;;;;;;;-3.20;81.19;99160.81;4240281;27;20542;-83
2024/01/21 06:24:44;;;;;;;12.43;7.43;;;;;;;-3.24;81.25;99159.09;4230174;27;20266;-82
2024/01/21 06:26:48;;;;;;;15.77;8.15;;;;;;;-3.25;81.00;99154.00;4249057;27;20200;-82
2024/01/21 06:28:51;;;;;;;18.23;8.95;;;;;;;-3.28;80.85;99160.78;4232748;27;20196;-82
2024/01/21 06:30:56;;;;;;;15.63;8.55;;;;;;;-3.26;80.95;99173.53;4246593;27;20205;-82
2024/01/21 06:32:59;;;;;;;14.27;7.75;;;;;;;-3.22;81.50;99175.28;4234352;27;20286;-82
2024/01/21 06:35:06;;;;;;;10.95;7.22;;;;;;;-3.17;81.53;99177.84;4255916;27;20202;-82
2024/01/21 06:37:08;;;;;;;14.40;6.90;;;;;;;-3.18;80.74;99174.41;4257371;27;20223;-82
2024/01/21 06:39:12;;;;;;;12.60;6.90;;;;;;;-3.20;80.41;99172.72;4236926;27;20710;-82
2024/01/21 06:41:15;;;;;;;9.85;6.57;;;;;;;-3.24;80.88;99176.94;4217373;28;20197;-82
2024/01/21 06:43:19;;;;;;;12.05;6.57;;;;;;;-3.24;80.70;99166.75;4244387;27;20751;-82
2024/01/21 06:45:24;;;;;;;10.25;6.38;;;;;;;-3.23;80.86;99173.56;4253814;27;20199;-83
2024/01/21 06:47:28;;;;;;;11.63;6.78;;;;;;;-3.22;81.10;99170.16;4236575;27;20204;-83
2024/01/21 06:49:31;;;;;;;10.32;6.93;;;;;;;-3.21;80.83;99161.66;4251615;27;20203;-82
2024/01/21 06:51:43;;;;;;;12.43;6.88;;;;;;;-3.24;80.55;99155.72;4253820;27;20560;-83
2024/01/21 06:53:46;;;;;;;12.77;7.47;;;;;;;-3.27;79.93;99156.53;4251387;27;20229;-81
2024/01/21 06:55:49;;;;;;;11.15;7.60;;;;;;;-3.29;80.57;99161.63;4252176;27;20198;-81
2024/01/21 06:57:52;;;;;;;11.93;7.35;;;;;;;-3.31;80.38;99158.25;4219401;27;20219;-81
2024/01/21 06:59:55;;;;;;;9.90;6.45;;;;;;;-3.33;81.79;99150.59;4222219;27;20211;-81
2024/01/21 07:01:58;;;;;;;16.63;6.78;;;;;;;-3.33;82.24;99154.84;4242346;27;20212;-80
2024/01/21 07:04:03;;;;;;;16.35;8.20;;;;;;;-3.25;81.64;99161.66;4233841;27;20217;-81
2024/01/21 07:06:09;;;;;;;13.60;7.20;;;;;;;-3.20;81.82;99171.00;4215819;27;20600;-80
2024/01/21 07:08:12;;;;;;;9.60;6.45;;;;;;;-3.14;81.78;99165.94;4232406;27;20200;-81
2024/01/21 07:10:16;;;;;;;20.42;11.30;;;;;;;-2.99;81.51;99181.25;4251727;27;20263;-81
2024/01/21 07:12:19;;;;;;;11.93;7.07;;;;;;;-2.93;81.09;99173.63;4240047;27;20207;-81
2024/01/21 07:14:22;;;;;;;12.25;7.32;;;;;;;-2.85;80.77;99177.03;4217148;27;20207;-80
2024/01/21 07:16:26;;;;;;;17.50;8.50;;;;;;;-2.89;80.21;99171.91;4232313;27;20702;-81
2024/01/21 07:18:29;;;;;;;13.98;7.82;;;;;;;-2.96;80.27;99168.50;4251458;27;20222;-80
2024/01/21 07:20:36;;;;;;;13.02;8.45;;;;;;;-3.00;79.87;99155.75;4234948;27;20290;-81
2024/01/21 07:22:39;;;;;;;13.70;8.68;;;;;;;-3.02;79.94;99157.44;4216546;28;20283;-80
2024/01/21 07:24:42;;;;;;;17.02;8.52;;;;;;;-3.01;79.92;99159.16;4230017;27;20834;-81
2024/01/21 07:26:45;;;;;;;15.35;9.10;;;;;;;-2.97;79.78;99154.06;4254501;27;20206;-81
2024/01/21 07:28:49;;;;;;;15.27;8.85;;;;;;;-2.96;79.72;99153.22;4237495;27;20195;-81
2024/01/21 07:30:52;;;;;;;14.07;8.38;;;;;;;-2.95;80.27;99154.91;4251529;27;20229;-80
2024/01/21 07:32:55;;;;;;;13.85;8.25;;;;;;;-2.91;80.09;99155.78;4249265;27;20199;-80
2024/01/21 07:35:01;;;;;;;11.80;7.88;;;;;;;-2.89;80.46;99165.09;4231591;27;20195;-80
2024/01/21 07:37:06;;;;;;;10.40;6.15;;;;;;;-2.81;80.33;99171.94;4225574;28;20579;-80
2024/01/21 07:39:09;;;;;;;8.80;5.53;;;;;;;-2.72;80.52;99178.72;4242507;27;20227;-80
2024/01/21 07:41:12;;;;;;;11.40;6.18;;;;;;;-2.62;80.31;99188.09;4234278;27;20733;-80
2024/01/21 07:43:15;;;;;;;11.10;6.90;;;;;;;-2.54;80.47;99194.03;4237916;27;20607;-81
2024/01/21 07:45:21;;;;;;;14.02;7.78;;;;;;;-2.48;80.09;99205.13;4222782;28;20308;-80
2024/01/21 07:47:25;;;;;;;12.40;7.07;;;;;;;-2.39;80.50;99205.13;4255205;27;20199;-80
2024/01/21 07:49:28;;;;;;;9.80;6.85;;;;;;;-2.33;79.92;99205.09;4234529;27;20631;-81
2024/01/21 07:51:31;;;;;;;11.90;6.80;;;;;;;-2.35;79.48;99200.88;4236162;27;20673;-81
2024/01/21 07:53:36;;;;;;;9.93;6.78;;;;;;;-2.37;79.53;99200.03;4254127;27;20210;-81
2024/01/21 07:55:39;;;;;;;12.52;7.28;;;;;;;-2.33;79.87;99195.75;4235417;27;20192;-80
2024/01/21 07:57:42;;;;;;;8.25;5.28;;;;;;;-2.29;79.44;99182.13;4233857;27;20211;-81
2024/01/21 07:59:45;;;;;;;12.18;6.38;;;;;;;-2.30;79.96;99179.56;4234101;27;21119;-80
2024/01/21 08:01:50;;;;;;;9.73;6.00;;;;;;;-2.32;79.57;99177.00;4230218;27;20196;-80
2024/01/21 08:03:54;;;;;;;11.50;7.05;;;;;;;-2.29;80.05;99182.13;4232630;27;20560;-80
2024/01/21 08:05:57;;;;;;;9.95;6.35;;;;;;;-2.22;80.01;99178.72;4226856;28;20265;-80
2024/01/21 08:08:01;;;;;;;10.85;7.45;;;;;;;-2.21;80.54;99174.44;4248931;27;20203;-80
2024/01/21 08:10:10;;;;;;;13.38;8.88;;;;;;;-2.11;81.21;99181.25;4225352;27;20290;-80
2024/01/21 08:12:13;;;;;;;23.70;12.73;;;;;;;-2.04;81.05;99180.41;4224297;27;20204;-81
2024/01/21 08:14:16;;;;;;;14.93;10.65;;;;;;;-2.00;80.86;99175.28;4239415;27;20559;-81
2024/01/21 08:16:20;;;;;;;37.67;22.80;;;;;;;-1.88;80.99;99180.34;4252719;27;20194;-80
2024/01/21 08:18:23;;;;;;;25.40;14.80;;;;;;;-1.68;80.53;99178.59;4259822;27;20223;-81
2024/01/21 08:20:27;;;;;;;23.00;14.30;;;;;;;-1.50;79.95;99183.63;4255664;27;20227;-81
2024/01/21 08:22:30;;;;;;;25.05;16.90;;;;;;;-1.46;79.26;99180.22;4236976;27;20223;-80
2024/01/21 08:24:34;;;;;;;19.73;14.90;;;;;;;-1.39;80.13;99190.41;4222792;27;20208;-81
2024/01/21 08:26:43;;;;;;;32.63;19.92;;;;;;;-1.29;80.36;99199.75;4250987;27;20202;-80
2024/01/21 08:28:46;;;;;;;50.65;26.45;;;;;;;-1.23;80.07;99194.63;4254584;27;20203;-80
2024/01/21 08:30:53;;;;;;;22.05;13.65;;;;;;;-1.08;80.85;99209.88;4231585;27;20296;-82
2024/01/21 08:32:57;;;;;;;12.30;8.20;;;;;;;-0.98;79.85;99206.41;4220633;27;20231;-80
2024/01/21 08:35:00;;;;;;;11.43;8.65;;;;;;;-0.88;80.52;99207.19;4251857;27;20199;-81
2024/01/21 08:37:04;;;;;;;13.15;8.20;;;;;;;-0.74;80.69;99209.66;4237375;27;20200;-80
2024/01/21 08:39:09;;;;;;;13.57;8.82;;;;;;;-0.60;79.86;99220.66;4233257;27;20863;-81
2024/01/21 08:41:12;;;;;;;12.48;8.00;;;;;;;-0.56;79.46;99220.63;4255135;27;25533;-82
2024/01/21 08:43:17;;;;;;;10.73;7.60;;;;;;;-0.54;79.64;99225.75;4239529;27;20294;-80
2024/01/21 08:45:20;;;;;;;13.85;9.00;;;;;;;-0.58;79.69;99217.25;4233331;27;20718;-81
2024/01/21 08:47:22;;;;;;;12.23;9.10;;;;;;;-0.53;80.37;99222.34;4236173;27;20232;-82
2024/01/21 08:49:26;;;;;;;14.82;10.52;;;;;;;-0.50;80.71;99209.50;4235683;27;20221;-82
2024/01/21 08:51:29;;;;;;;19.30;11.60;;;;;;;-0.48;79.86;99212.91;4232014;27;20293;-81
2024/01/21 08:53:33;;;;;;;13.00;8.93;;;;;;;-0.46;81.07;99212.03;4232930;27;20203;-81
2024/01/21 08:55:36;;;;;;;13.38;9.00;;;;;;;-0.42;81.88;99212.00;4224447;28;20201;-82
2024/01/21 08:57:39;;;;;;;16.58;9.73;;;;;;;-0.38;81.61;99207.69;4224117;27;20238;-80
2024/01/21 08:59:43;;;;;;;12.77;8.90;;;;;;;-0.36;81.95;99204.28;4236887;27;20717;-81
2024/01/21 09:01:46;;;;;;;12.80;8.75;;;;;;;-0.36;81.18;99196.59;4235928;27;20771;-82
2024/01/21 09:03:50;;;;;;;12.15;8.45;;;;;;;-0.33;81.94;99191.44;4238834;27;20625;-80
2024/01/21 09:05:53;;;;;;;12.82;8.85;;;;;;;-0.28;81.62;99197.38;4251825;27;20195;-79
2024/01/21 09:07:57;;;;;;;14.35;9.80;;;;;;;-0.18;81.77;99204.13;4236878;27;20240;-79
2024/01/21 09:09:59;;;;;;;15.27;10.98;;;;;;;-0.05;83.28;99212.56;4248708;27;20564;-79
2024/01/21 09:12:03;;;;;;;22.55;13.95;;;;;;;0.06;82.86;99212.44;4237733;27;20254;-78
2024/01/21 09:14:08;;;;;;;25.23;15.32;;;;;;;0.20;83.06;99214.88;4236763;27;20207;-81
2024/01/21 09:16:15;;;;;;;24.95;14.38;;;;;;;0.24;82.94;99214.84;4250848;27;20578;-80
2024/01/21 09:18:18;;;;;;;32.40;17.65;;;;;;;0.29;83.38;99232.72;4255879;27;20202;-81
2024/01/21 09:20:23;;;;;;;21.40;13.02;;;;;;;0.26;81.88;99230.19;4239307;27;20204;-81
2024/01/21 09:22:25;;;;;;;14.77;10.40;;;;;;;0.24;82.01;99224.22;4231632;27;20223;-82
2024/01/21 09:24:28;;;;;;;9.40;7.68;;;;;;;0.24;82.45;99231.91;4236816;27;20250;-82
2024/01/21 09:26:32;;;;;;;12.75;8.60;;;;;;;0.25;82.09;99233.63;4213293;27;20244;-82
2024/01/21 09:28:36;;;;;;;13.73;8.63;;;;;;;0.24;81.52;99237.03;4233719;27;20203;-84
2024/01/21 09:30:41;;;;;;;15.00;8.90;;;;;;;0.21;82.06;99231.94;4230514;27;20234;-81
2024/01/21 09:32:45;;;;;;;13.95;8.27;;;;;;;0.22;82.16;99226.78;4235866;27;20204;-82
2024/01/21 09:34:49;;;;;;;19.15;10.55;;;;;;;0.25;81.23;99225.94;4258763;27;20206;-83
2024/01/21 09:36:55;;;;;;;17.27;10.40;;;;;;;0.26;81.32;99218.22;4215031;27;20193;-84